Time;durP1;ratioP1;P1;durP2;ratioP2;P2;SDS_P1;SDS_P2;PMS_P1;PMS_P2;Temp;Humidity;BMP_temperature;BMP_pressure;BME280_temperature;BME280_humidity;BME280_pressure;Samples;Min_cycle;Max_cycle;Signal;HPM_P1;HPM_P2
2023/07/06 05:03:30;;;;;;;5.95;2.40;;;15.60;95.80;;;;;;5050406;23;20162;-70
2023/07/06 05:06:02;;;;;;;5.80;2.63;;;15.60;95.70;;;;;;5004215;28;20054;-72
2023/07/06 05:08:28;;;;;;;5.72;2.50;;;15.70;95.50;;;;;;5004915;28;20038;-74
2023/07/06 05:10:53;;;;;;;5.80;2.35;;;15.70;95.40;;;;;;4986954;28;20022;-73
2023/07/06 05:13:21;;;;;;;4.75;2.50;;;15.80;95.30;;;;;;5004960;28;20073;-71
2023/07/06 05:15:48;;;;;;;5.28;2.60;;;15.90;95.30;;;;;;5004221;28;20034;-73
2023/07/06 05:18:14;;;;;;;6.05;2.38;;;15.90;95.10;;;;;;5004462;28;20018;-73
2023/07/06 05:20:40;;;;;;;4.45;2.65;;;16.10;95.00;;;;;;5003916;28;20030;-72
2023/07/06 05:23:08;;;;;;;4.40;2.30;;;16.20;94.70;;;;;;4987248;28;20031;-75
2023/07/06 05:25:36;;;;;;;5.32;2.88;;;16.30;94.50;;;;;;4987498;28;20022;-71
2023/07/06 05:28:01;;;;;;;8.13;2.40;;;16.40;94.30;;;;;;5004352;28;20304;-73
2023/07/06 05:30:29;;;;;;;6.43;2.58;;;16.40;94.10;;;;;;5004714;28;20031;-72
2023/07/06 05:32:55;;;;;;;9.32;3.00;;;16.50;93.90;;;;;;4986819;28;20211;-72
2023/07/06 05:35:22;;;;;;;11.40;2.83;;;16.60;93.90;;;;;;5004607;28;20025;-73
2023/07/06 05:37:49;;;;;;;6.57;3.08;;;16.60;93.90;;;;;;5003975;28;20042;-73
2023/07/06 05:40:15;;;;;;;7.47;3.00;;;16.60;94.00;;;;;;5004302;28;20346;-73
2023/07/06 05:42:40;;;;;;;6.53;2.90;;;16.60;94.00;;;;;;5004156;28;20022;-73
2023/07/06 05:45:08;;;;;;;8.10;3.20;;;16.70;94.00;;;;;;5004509;28;20026;-73
2023/07/06 05:47:34;;;;;;;6.93;3.08;;;16.70;93.80;;;;;;5004338;28;20042;-71
2023/07/06 05:49:59;;;;;;;8.68;3.40;;;16.70;93.70;;;;;;5003824;28;20026;-72
2023/07/06 05:52:27;;;;;;;6.72;3.30;;;16.80;93.70;;;;;;5004010;28;20029;-72
2023/07/06 05:54:53;;;;;;;8.73;3.47;;;16.80;93.90;;;;;;4985947;28;20370;-73
2023/07/06 05:57:22;;;;;;;5.32;2.95;;;16.70;93.90;;;;;;4986627;28;20026;-72
2023/07/06 05:59:48;;;;;;;8.77;3.03;;;16.70;93.80;;;;;;4986292;28;20053;-73
2023/07/06 06:02:20;;;;;;;6.60;2.92;;;16.80;93.70;;;;;;4982563;28;20316;-74
2023/07/06 06:04:47;;;;;;;8.65;2.83;;;16.90;93.30;;;;;;4984461;28;20031;-72
2023/07/06 06:07:19;;;;;;;6.07;2.92;;;17.00;93.30;;;;;;4984235;28;20035;-72
2023/07/06 06:09:47;;;;;;;5.78;2.80;;;17.10;93.20;;;;;;4983012;28;20030;-71
2023/07/06 06:12:18;;;;;;;8.90;2.80;;;17.30;93.00;;;;;;4982842;28;20042;-73
2023/07/06 06:14:48;;;;;;;6.32;2.92;;;17.50;92.50;;;;;;4983682;28;20035;-72
2023/07/06 06:17:15;;;;;;;7.70;3.15;;;17.70;92.20;;;;;;4951093;28;20038;-71
2023/07/06 06:19:42;;;;;;;7.68;2.90;;;17.90;91.50;;;;;;4984148;28;20035;-75
2023/07/06 06:22:11;;;;;;;6.43;2.90;;;18.00;91.20;;;;;;4984199;28;20034;-71
2023/07/06 06:24:36;;;;;;;5.55;2.47;;;18.10;90.80;;;;;;4984405;28;20034;-72
2023/07/06 06:27:04;;;;;;;7.45;2.65;;;18.10;90.60;;;;;;4983570;28;20217;-71
2023/07/06 06:29:30;;;;;;;9.35;2.83;;;18.20;90.70;;;;;;4984546;28;20047;-74
2023/07/06 06:31:56;;;;;;;6.60;2.50;;;18.30;90.30;;;;;;4983247;28;20217;-73
2023/07/06 06:34:23;;;;;;;4.60;2.83;;;18.50;90.20;;;;;;4984693;28;20031;-72
2023/07/06 06:36:49;;;;;;;8.50;2.83;;;18.50;89.50;;;;;;4983819;28;20062;-71
2023/07/06 06:39:19;;;;;;;8.52;3.03;;;18.50;89.30;;;;;;4984167;28;20031;-71
2023/07/06 06:41:46;;;;;;;8.63;2.60;;;18.70;88.70;;;;;;4966471;28;20037;-71
2023/07/06 06:44:15;;;;;;;6.03;2.75;;;18.80;88.30;;;;;;4966962;28;20098;-72
2023/07/06 06:46:41;;;;;;;10.13;2.92;;;19.00;87.80;;;;;;4983639;28;20224;-71
2023/07/06 06:49:07;;;;;;;6.43;2.70;;;19.10;87.60;;;;;;4983446;28;20061;-71
2023/07/06 06:51:32;;;;;;;9.20;2.60;;;19.20;86.80;;;;;;4983952;28;20035;-72
2023/07/06 06:53:58;;;;;;;9.73;2.63;;;19.40;84.50;;;;;;4983831;28;20034;-72
2023/07/06 06:56:24;;;;;;;5.90;2.17;;;19.50;84.00;;;;;;4983972;28;20019;-72
2023/07/06 06:58:53;;;;;;;5.15;2.33;;;19.50;82.60;;;;;;4983765;28;20327;-73
2023/07/06 07:01:18;;;;;;;;;;;19.60;81.20;;;;;;4984224;28;20086;-73
2023/07/06 07:03:45;;;;;;;4.88;1.45;;;19.70;79.40;;;;;;4983329;28;19929;-74
2023/07/06 07:06:14;;;;;;;4.22;1.60;;;19.70;76.20;;;;;;4983490;28;20034;-73
2023/07/06 07:08:44;;;;;;;9.40;2.40;;;19.70;76.60;;;;;;4983657;28;20054;-73
2023/07/06 07:11:11;;;;;;;3.63;1.95;;;19.90;79.10;;;;;;4983603;28;20059;-71
2023/07/06 07:13:38;;;;;;;5.57;1.75;;;20.00;77.60;;;;;;4983798;28;20103;-73
2023/07/06 07:16:06;;;;;;;4.22;1.60;;;20.20;77.10;;;;;;4983228;28;20440;-72
2023/07/06 07:18:34;;;;;;;5.00;1.73;;;20.30;76.30;;;;;;4983475;28;20038;-74
2023/07/06 07:21:03;;;;;;;6.75;2.10;;;20.40;74.90;;;;;;4982734;28;20034;-72
2023/07/06 07:23:36;;;;;;;5.47;1.80;;;20.30;74.80;;;;;;4980535;28;20030;-72
2023/07/06 07:26:03;;;;;;;5.15;1.67;;;20.30;75.30;;;;;;4982982;28;20029;-74
2023/07/06 07:28:31;;;;;;;5.30;1.88;;;20.30;74.90;;;;;;4983697;28;20043;-75
2023/07/06 07:30:58;;;;;;;6.65;1.80;;;20.50;75.30;;;;;;4983114;28;20034;-74
2023/07/06 07:33:27;;;;;;;4.30;1.67;;;20.60;75.00;;;;;;4983468;28;20054;-73
2023/07/06 07:35:57;;;;;;;;;;;20.70;73.90;;;;;;4971626;28;20042;-71
2023/07/06 07:38:24;;;;;;;6.72;1.48;;;20.70;74.00;;;;;;4963729;29;19907;-73
2023/07/06 07:41:01;;;;;;;8.05;1.70;;;20.90;72.70;;;;;;4963449;29;20178;-72
2023/07/06 07:43:32;;;;;;;6.57;1.40;;;20.90;70.90;;;;;;4966389;28;20039;-71
2023/07/06 07:46:06;;;;;;;3.95;1.60;;;20.90;71.60;;;;;;4966448;29;20035;-73
2023/07/06 07:48:38;;;;;;;3.95;1.02;;;21.00;71.20;;;;;;4967238;29;20035;-74
2023/07/06 07:51:07;;;;;;;3.97;1.20;;;21.10;71.50;;;;;;4965676;29;20178;-72
2023/07/06 07:53:38;;;;;;;3.15;1.30;;;21.20;70.20;;;;;;4967843;28;20071;-72
2023/07/06 07:56:05;;;;;;;6.07;1.30;;;21.30;70.20;;;;;;4976747;28;20035;-72
2023/07/06 07:58:33;;;;;;;4.90;1.20;;;21.50;69.80;;;;;;4967091;29;20043;-72
2023/07/06 08:01:00;;;;;;;;;;;21.50;68.20;;;;;;4966198;28;20237;-72
2023/07/06 08:03:27;;;;;;;2.83;1.17;;;21.50;68.50;;;;;;4973727;28;19923;-72
2023/07/06 08:06:02;;;;;;;5.90;2.35;;;21.60;69.10;;;;;;4968575;28;20311;-71
2023/07/06 08:08:29;;;;;;;7.13;1.40;;;21.70;69.20;;;;;;4986280;28;20119;-72
2023/07/06 08:10:54;;;;;;;4.15;1.90;;;22.00;68.10;;;;;;4985680;28;20050;-72
2023/07/06 08:13:21;;;;;;;15.40;10.60;;;22.00;67.00;;;;;;4986253;28;20102;-72
2023/07/06 08:15:47;;;;;;;6.65;4.38;;;22.00;67.70;;;;;;4986404;28;20023;-73
2023/07/06 08:18:14;;;;;;;5.85;1.50;;;21.90;66.50;;;;;;4986429;28;20045;-74
2023/07/06 08:20:43;;;;;;;4.10;1.10;;;21.90;66.60;;;;;;4986274;28;20296;-72
2023/07/06 08:23:12;;;;;;;4.43;2.15;;;21.80;66.50;;;;;;4985606;28;20061;-72
2023/07/06 08:25:40;;;;;;;4.65;2.40;;;22.00;67.00;;;;;;4986060;28;20031;-73
2023/07/06 08:28:07;;;;;;;5.50;2.37;;;22.20;67.50;;;;;;4985488;28;20045;-74
2023/07/06 08:30:34;;;;;;;4.40;1.40;;;22.30;66.80;;;;;;4968838;28;20038;-72
2023/07/06 08:33:02;;;;;;;4.00;1.65;;;22.50;66.40;;;;;;4985326;28;20304;-73
2023/07/06 08:35:29;;;;;;;4.30;1.60;;;22.50;65.80;;;;;;4984606;28;20244;-76
2023/07/06 08:38:04;;;;;;;4.43;1.60;;;22.50;65.90;;;;;;4986306;28;20340;-75
2023/07/06 08:40:34;;;;;;;3.97;1.40;;;22.50;65.40;;;;;;4985827;28;20363;-71
2023/07/06 08:43:02;;;;;;;5.88;2.05;;;22.60;65.90;;;;;;4985233;28;20192;-70
2023/07/06 08:45:40;;;;;;;3.63;1.47;;;22.70;65.70;;;;;;4985520;28;20039;-72
2023/07/06 08:48:13;;;;;;;4.05;1.45;;;23.00;65.60;;;;;;4984952;28;20814;-70
2023/07/06 08:50:42;;;;;;;4.15;1.48;;;23.10;64.60;;;;;;4984951;28;20058;-71
2023/07/06 08:53:14;;;;;;;7.13;1.70;;;23.30;65.00;;;;;;4985120;28;20134;-70
2023/07/06 08:55:43;;;;;;;4.88;1.52;;;23.30;64.80;;;;;;4978966;28;20220;-71
2023/07/06 08:58:27;;;;;;;4.47;1.67;;;23.60;64.30;;;;;;4968419;28;20046;-71
2023/07/06 09:01:03;;;;;;;6.32;1.80;;;23.70;63.60;;;;;;4970919;28;20035;-70
2023/07/06 09:03:37;;;;;;;8.00;2.78;;;23.80;63.30;;;;;;4984872;28;20055;-70
2023/07/06 09:06:03;;;;;;;5.03;1.65;;;23.90;63.40;;;;;;4984450;28;20058;-71
2023/07/06 09:08:29;;;;;;;5.03;1.42;;;24.20;62.20;;;;;;4985324;28;20089;-73
2023/07/06 09:10:54;;;;;;;4.18;1.80;;;24.30;62.10;;;;;;4984798;28;20035;-70
2023/07/06 09:13:26;;;;;;;6.18;1.33;;;24.30;61.70;;;;;;4951775;28;20063;-73
2023/07/06 09:16:03;;;;;;;7.68;1.42;;;24.40;61.80;;;;;;4984564;28;20221;-71
2023/07/06 09:18:32;;;;;;;4.47;1.40;;;24.70;61.70;;;;;;4985355;28;20228;-73
2023/07/06 09:20:59;;;;;;;6.45;1.90;;;24.90;60.80;;;;;;4984277;28;20376;-73
2023/07/06 09:23:24;;;;;;;8.25;1.58;;;24.90;60.50;;;;;;4984885;28;20026;-72
2023/07/06 09:25:53;;;;;;;5.47;1.80;;;24.90;60.30;;;;;;4984868;28;20264;-72
2023/07/06 09:28:29;;;;;;;6.60;1.77;;;25.00;60.40;;;;;;4984556;28;20056;-71
2023/07/06 09:31:18;;;;;;;5.57;1.55;;;25.10;60.00;;;;;;4984317;28;20027;-70
2023/07/06 09:33:48;;;;;;;3.83;1.70;;;25.20;59.70;;;;;;4985017;28;20043;-72
2023/07/06 09:36:25;;;;;;;11.45;5.07;;;25.30;58.80;;;;;;4984337;28;20046;-73
2023/07/06 09:38:52;;;;;;;3.75;2.00;;;25.20;58.70;;;;;;4984707;28;20038;-71
2023/07/06 09:41:19;;;;;;;4.97;1.92;;;24.90;59.00;;;;;;4984680;28;20034;-72
2023/07/06 09:43:46;;;;;;;7.87;1.70;;;25.00;59.40;;;;;;4984405;28;20057;-71
2023/07/06 09:46:14;;;;;;;5.45;1.88;;;25.60;58.80;;;;;;4984018;28;20393;-71
2023/07/06 09:48:42;;;;;;;3.75;1.77;;;25.90;57.70;;;;;;4984931;28;20072;-73
2023/07/06 09:51:08;;;;;;;13.75;2.38;;;25.90;57.40;;;;;;4983668;28;20058;-71
2023/07/06 09:53:43;;;;;;;5.18;1.67;;;26.00;57.30;;;;;;4984531;28;20304;-73
2023/07/06 09:56:11;;;;;;;3.75;1.55;;;26.00;57.10;;;;;;4983920;28;20056;-71
2023/07/06 09:58:38;;;;;;;8.10;1.88;;;26.30;56.90;;;;;;4984271;28;20383;-72
2023/07/06 10:01:14;;;;;;;3.90;1.42;;;26.10;56.40;;;;;;4983962;28;20208;-71
2023/07/06 10:04:00;;;;;;;3.92;1.98;;;25.80;57.10;;;;;;4970414;28;20329;-73
2023/07/06 10:06:29;;;;;;;4.50;1.65;;;25.70;57.70;;;;;;4983061;28;20034;-73
2023/07/06 10:09:18;;;;;;;5.78;1.90;;;25.60;58.10;;;;;;4964418;29;20035;-72
2023/07/06 10:11:51;;;;;;;3.90;1.58;;;25.40;58.30;;;;;;4974315;28;20078;-72
2023/07/06 10:14:54;;;;;;;4.63;1.70;;;25.40;57.90;;;;;;4983224;28;20143;-73
2023/07/06 10:17:48;;;;;;;3.13;1.30;;;25.30;57.40;;;;;;4975431;28;20050;-72
2023/07/06 10:20:36;;;;;;;5.03;1.70;;;25.40;58.00;;;;;;4970440;28;20054;-72
2023/07/06 10:23:16;;;;;;;3.67;1.52;;;25.60;57.60;;;;;;4963801;29;20035;-71
2023/07/06 10:25:54;;;;;;;9.73;7.15;;;25.70;57.00;;;;;;4964227;29;20108;-70
2023/07/06 10:28:25;;;;;;;5.15;1.85;;;25.80;57.00;;;;;;4964611;29;20046;-73
2023/07/06 10:30:55;;;;;;;4.63;1.63;;;26.00;56.20;;;;;;4964673;29;20039;-71
2023/07/06 10:33:39;;;;;;;5.05;1.75;;;26.00;56.00;;;;;;4964855;29;20324;-72
2023/07/06 10:36:11;;;;;;;3.83;1.50;;;26.10;56.00;;;;;;4963964;29;20321;-72
2023/07/06 10:38:37;;;;;;;3.78;1.40;;;26.10;56.00;;;;;;4964654;29;20045;-73
2023/07/06 10:41:29;;;;;;;4.32;1.85;;;26.50;56.30;;;;;;4963725;29;20035;-72
2023/07/06 10:44:01;;;;;;;6.00;2.38;;;27.00;55.80;;;;;;4962020;28;20043;-71
2023/07/06 10:46:36;;;;;;;3.67;1.83;;;27.40;55.40;;;;;;4983644;28;20236;-73
2023/07/06 10:49:17;;;;;;;3.95;1.60;;;27.70;54.60;;;;;;4982934;28;20035;-74
2023/07/06 10:51:55;;;;;;;4.55;1.65;;;28.00;53.90;;;;;;4983997;28;20146;-72
2023/07/06 10:54:30;;;;;;;;;;;28.20;53.60;;;;;;4984045;28;20312;-72
2023/07/06 10:57:10;;;;;;;3.83;1.63;;;28.30;52.70;;;;;;4983280;28;19905;-72
2023/07/06 10:59:44;;;;;;;3.67;1.90;;;28.20;53.40;;;;;;4983650;28;20147;-73
2023/07/06 11:02:45;;;;;;;4.05;1.75;;;27.90;52.70;;;;;;4982773;28;20051;-72
2023/07/06 11:05:19;;;;;;;6.30;1.83;;;27.80;53.50;;;;;;4966411;28;20043;-73
2023/07/06 11:07:53;;;;;;;3.65;1.70;;;27.80;53.20;;;;;;4983784;28;20066;-74
2023/07/06 11:10:21;;;;;;;3.38;1.50;;;28.00;53.20;;;;;;4982703;28;20101;-73
2023/07/06 11:12:55;;;;;;;6.80;1.88;;;27.90;53.60;;;;;;4983832;28;20089;-73
2023/07/06 11:15:29;;;;;;;2.72;1.40;;;27.80;52.90;;;;;;4982709;28;20030;-73
2023/07/06 11:17:57;;;;;;;5.95;1.63;;;27.70;53.80;;;;;;4967760;28;20143;-72
2023/07/06 11:20:26;;;;;;;5.00;1.52;;;27.40;53.60;;;;;;4985879;28;20038;-73
2023/07/06 11:23:03;;;;;;;4.32;1.70;;;26.90;54.20;;;;;;4986645;28;20164;-73
2023/07/06 11:25:31;;;;;;;3.95;1.70;;;26.80;54.90;;;;;;4987328;28;20109;-73
2023/07/06 11:28:09;;;;;;;4.28;1.80;;;26.70;55.00;;;;;;4987347;28;20099;-73
2023/07/06 11:30:57;;;;;;;3.55;1.45;;;26.60;54.40;;;;;;4967384;29;20344;-72
2023/07/06 11:33:35;;;;;;;3.90;1.85;;;26.50;54.50;;;;;;4967601;29;20094;-72
2023/07/06 11:36:06;;;;;;;5.43;1.90;;;26.80;54.50;;;;;;4967101;29;20258;-73
2023/07/06 11:39:05;;;;;;;3.83;1.80;;;27.40;54.20;;;;;;4982205;28;20045;-72
2023/07/06 11:41:53;;;;;;;7.57;2.00;;;28.20;53.00;;;;;;4986430;28;20027;-72
2023/07/06 11:44:48;;;;;;;6.22;1.90;;;28.90;52.30;;;;;;4986073;28;20077;-73
2023/07/06 11:47:39;;;;;;;6.28;1.63;;;30.10;51.40;;;;;;4985935;28;20392;-72
2023/07/06 11:50:16;;;;;;;6.38;3.33;;;30.30;50.30;;;;;;4985798;28;20039;-73
2023/07/06 11:52:58;;;;;;;12.27;6.50;;;30.90;50.60;;;;;;4986780;28;20022;-73
2023/07/06 11:55:33;;;;;;;7.10;1.85;;;30.90;49.70;;;;;;4986700;28;20442;-72
2023/07/06 11:58:07;;;;;;;4.60;1.65;;;30.10;49.90;;;;;;4985831;28;20042;-73
2023/07/06 12:00:48;;;;;;;8.10;1.73;;;30.30;49.50;;;;;;4986360;28;20019;-72
2023/07/06 12:03:15;;;;;;;3.58;1.63;;;31.50;49.00;;;;;;4979387;28;20050;-73
2023/07/06 12:05:50;;;;;;;2.75;1.55;;;33.10;47.50;;;;;;4986218;28;20023;-73
2023/07/06 12:08:35;;;;;;;5.60;1.70;;;33.50;46.40;;;;;;4986011;28;20050;-72
2023/07/06 12:11:02;;;;;;;4.40;1.77;;;34.80;46.20;;;;;;4985687;28;20038;-74
2023/07/06 12:13:36;;;;;;;;;;;36.60;45.00;;;;;;4986796;28;20030;-73
2023/07/06 12:16:07;;;;;;;6.15;1.40;;;37.20;44.10;;;;;;4985868;28;19912;-73
2023/07/06 12:18:33;;;;;;;4.40;1.70;;;38.10;43.80;;;;;;4985891;28;20050;-73
2023/07/06 12:21:01;;;;;;;6.53;1.37;;;38.50;43.30;;;;;;4986021;28;20014;-74
2023/07/06 12:23:27;;;;;;;3.90;1.65;;;38.60;42.40;;;;;;4986117;28;20041;-74
2023/07/06 12:25:54;;;;;;;2.33;1.33;;;38.30;42.50;;;;;;4986102;28;20045;-73
2023/07/06 12:28:20;;;;;;;6.20;1.52;;;37.90;41.70;;;;;;4985468;28;20030;-74
2023/07/06 12:30:49;;;;;;;5.00;1.75;;;38.10;41.90;;;;;;4985431;28;20061;-75
2023/07/06 12:33:16;;;;;;;2.83;1.45;;;38.70;41.90;;;;;;4985566;28;20082;-77
2023/07/06 12:35:43;;;;;;;4.45;1.65;;;39.30;41.20;;;;;;4985898;28;20027;-74
2023/07/06 12:38:19;;;;;;;8.02;1.80;;;39.40;40.90;;;;;;4985792;28;20031;-74
2023/07/06 12:40:46;;;;;;;5.93;1.77;;;40.40;40.80;;;;;;4985883;28;20308;-75
2023/07/06 12:43:26;;;;;;;3.83;1.50;;;40.90;40.70;;;;;;4985074;28;20023;-75
2023/07/06 12:45:53;;;;;;;4.95;1.73;;;40.40;39.80;;;;;;4985874;28;20220;-75
2023/07/06 12:48:25;;;;;;;13.67;2.27;;;40.10;40.40;;;;;;4985658;28;20029;-75
2023/07/06 12:50:54;;;;;;;8.10;2.30;;;40.50;40.00;;;;;;4985403;28;20053;-75
2023/07/06 12:53:27;;;;;;;5.22;1.52;;;41.10;39.70;;;;;;4984886;28;20057;-76
2023/07/06 12:56:00;;;;;;;7.10;1.98;;;41.60;39.50;;;;;;4985752;28;20038;-74
2023/07/06 12:58:34;;;;;;;10.52;2.38;;;41.90;39.00;;;;;;4985440;28;20038;-74
2023/07/06 13:01:03;;;;;;;4.13;1.88;;;40.60;39.50;;;;;;4985429;28;20022;-73
2023/07/06 13:03:30;;;;;;;5.28;1.50;;;40.70;39.30;;;;;;4985483;28;20051;-74
2023/07/06 13:05:57;;;;;;;12.60;2.17;;;39.60;39.70;;;;;;4985031;28;20039;-77
2023/07/06 13:08:23;;;;;;;15.20;2.00;;;39.40;40.60;;;;;;4984751;28;20027;-75
2023/07/06 13:11:03;;;;;;;35.63;3.33;;;40.20;40.00;;;;;;4981078;28;20027;-77
2023/07/06 13:13:35;;;;;;;8.35;2.30;;;41.30;39.80;;;;;;4966096;29;20031;-77
2023/07/06 13:16:18;;;;;;;9.70;1.73;;;41.90;39.50;;;;;;4965883;29;20225;-76
2023/07/06 13:18:46;;;;;;;10.13;2.60;;;41.70;39.30;;;;;;4966215;29;20031;-74
2023/07/06 13:21:22;;;;;;;3.85;1.40;;;43.30;38.70;;;;;;4947863;29;20046;-76
2023/07/06 13:23:52;;;;;;;3.47;1.60;;;43.60;38.20;;;;;;4965655;29;20277;-74
2023/07/06 13:26:18;;;;;;;5.30;3.42;;;44.00;37.50;;;;;;4965148;29;20457;-74
2023/07/06 13:28:43;;;;;;;4.15;1.27;;;44.20;39.00;;;;;;4965690;29;20285;-76
2023/07/06 13:31:14;;;;;;;7.83;1.87;;;44.40;37.30;;;;;;4964990;29;20035;-77
2023/07/06 13:33:40;;;;;;;4.07;1.70;;;44.20;37.60;;;;;;4965839;29;20042;-75
2023/07/06 13:36:18;;;;;;;3.63;1.38;;;44.70;37.80;;;;;;4965298;29;20219;-78
2023/07/06 13:38:46;;;;;;;3.38;1.42;;;44.70;37.10;;;;;;4965777;29;20043;-75
2023/07/06 13:41:25;;;;;;;5.13;1.45;;;44.70;37.00;;;;;;4964600;28;20027;-75
2023/07/06 13:43:51;;;;;;;2.67;1.42;;;43.60;36.80;;;;;;4973226;28;20045;-75
2023/07/06 13:46:17;;;;;;;4.73;1.50;;;43.90;37.80;;;;;;4984554;28;20232;-74
2023/07/06 13:48:45;;;;;;;2.58;1.38;;;42.80;37.10;;;;;;4984889;28;20019;-74
2023/07/06 13:51:12;;;;;;;3.28;1.42;;;41.40;37.90;;;;;;4983872;28;20034;-75
2023/07/06 13:53:39;;;;;;;3.88;1.60;;;41.30;38.70;;;;;;4984372;28;20045;-76
2023/07/06 13:56:06;;;;;;;3.25;1.63;;;41.10;38.60;;;;;;4984059;28;20027;-75
2023/07/06 13:58:32;;;;;;;2.80;1.30;;;42.90;38.10;;;;;;4984485;28;20039;-75
2023/07/06 14:00:59;;;;;;;3.65;1.58;;;43.90;37.40;;;;;;4984338;28;20023;-74
2023/07/06 14:03:31;;;;;;;3.35;1.20;;;44.70;37.60;;;;;;4984133;28;20051;-74
2023/07/06 14:05:58;;;;;;;3.95;1.65;;;44.30;36.60;;;;;;4984475;28;20037;-75
2023/07/06 14:08:25;;;;;;;3.83;1.43;;;44.10;36.50;;;;;;4984381;28;20077;-74
2023/07/06 14:10:52;;;;;;;3.55;1.27;;;44.10;36.50;;;;;;4979977;28;20023;-75
2023/07/06 14:13:21;;;;;;;2.45;1.40;;;43.10;37.00;;;;;;4964365;29;20098;-74
2023/07/06 14:15:49;;;;;;;3.92;1.60;;;40.40;37.80;;;;;;4965074;29;20051;-73
2023/07/06 14:18:14;;;;;;;;;;;39.00;38.90;;;;;;4964609;29;20221;-74
2023/07/06 14:20:41;;;;;;;4.07;2.10;;;37.90;39.80;;;;;;4964925;29;19937;-73
2023/07/06 14:23:10;;;;;;;4.55;2.10;;;37.50;40.80;;;;;;4946933;29;20031;-73
2023/07/06 14:25:39;;;;;;;4.32;1.80;;;38.50;41.10;;;;;;4965154;29;20380;-79
2023/07/06 14:28:05;;;;;;;3.13;1.38;;;40.10;39.10;;;;;;4964467;29;20350;-76
2023/07/06 14:30:33;;;;;;;3.65;1.40;;;40.30;38.80;;;;;;4947782;29;20046;-81
2023/07/06 14:33:02;;;;;;;2.90;1.38;;;41.30;38.70;;;;;;4964653;29;20031;-75
2023/07/06 14:35:28;;;;;;;7.90;1.40;;;41.10;38.70;;;;;;4963834;29;20023;-79
2023/07/06 14:37:54;;;;;;;3.08;1.50;;;42.40;38.30;;;;;;4947669;29;20320;-81
2023/07/06 14:40:20;;;;;;;4.82;1.48;;;43.20;37.40;;;;;;4947110;29;20072;-74
2023/07/06 14:42:51;;;;;;;5.38;1.52;;;41.10;38.10;;;;;;4964495;29;20094;-74
2023/07/06 14:45:17;;;;;;;4.00;1.92;;;39.20;38.70;;;;;;4949729;28;20034;-72
2023/07/06 14:47:42;;;;;;;3.72;1.77;;;37.60;40.50;;;;;;4983710;28;20038;-74
2023/07/06 14:50:10;;;;;;;5.80;1.70;;;36.90;40.60;;;;;;4983438;28;20307;-73
2023/07/06 14:52:36;;;;;;;4.97;1.50;;;38.40;40.40;;;;;;4985140;28;20069;-74
2023/07/06 14:55:05;;;;;;;3.20;1.87;;;37.90;39.50;;;;;;4987913;28;20094;-73
2023/07/06 14:57:31;;;;;;;2.55;1.60;;;36.80;40.60;;;;;;4987246;28;20446;-71
2023/07/06 14:59:57;;;;;;;2.90;1.40;;;38.60;40.10;;;;;;4979252;28;20042;-75
2023/07/06 15:02:26;;;;;;;2.33;1.40;;;40.30;39.10;;;;;;4967313;28;20047;-74
2023/07/06 15:04:52;;;;;;;4.72;1.42;;;41.80;38.00;;;;;;4986810;28;20367;-75
2023/07/06 15:07:18;;;;;;;4.35;1.70;;;42.30;37.30;;;;;;4987194;28;20368;-74
2023/07/06 15:09:43;;;;;;;3.80;1.80;;;40.10;38.40;;;;;;4987759;28;20029;-73
2023/07/06 15:12:09;;;;;;;3.22;1.70;;;38.00;39.60;;;;;;4986905;28;20081;-74
2023/07/06 15:14:35;;;;;;;3.53;1.70;;;36.50;40.70;;;;;;4987168;28;20082;-74
2023/07/06 15:17:02;;;;;;;3.85;1.67;;;35.60;41.90;;;;;;4986063;28;20022;-73
2023/07/06 15:19:28;;;;;;;4.47;1.67;;;34.30;42.20;;;;;;4966548;29;20362;-72
2023/07/06 15:21:54;;;;;;;4.00;1.63;;;35.50;42.30;;;;;;4968260;29;20027;-73
2023/07/06 15:24:19;;;;;;;4.82;1.80;;;38.00;40.90;;;;;;4967507;29;20207;-73
2023/07/06 15:26:45;;;;;;;3.20;1.50;;;40.20;39.40;;;;;;4967861;29;20438;-74
2023/07/06 15:29:11;;;;;;;3.22;1.52;;;40.50;38.90;;;;;;4967184;28;20091;-75
2023/07/06 15:31:37;;;;;;;3.03;1.55;;;39.50;38.90;;;;;;4968707;28;20035;-72
2023/07/06 15:34:03;;;;;;;4.95;2.05;;;38.00;39.70;;;;;;4967980;29;20034;-73
2023/07/06 15:36:30;;;;;;;3.33;1.65;;;36.00;40.50;;;;;;4967160;29;20035;-72
2023/07/06 15:38:55;;;;;;;3.55;1.60;;;35.20;42.30;;;;;;4967744;29;20294;-72
2023/07/06 15:41:21;;;;;;;3.75;1.85;;;34.50;42.60;;;;;;4967150;29;20027;-73
2023/07/06 15:43:47;;;;;;;3.35;1.40;;;33.80;42.70;;;;;;4967765;29;20035;-73
2023/07/06 15:46:13;;;;;;;3.65;1.55;;;33.00;44.00;;;;;;4967180;29;20094;-73
2023/07/06 15:48:39;;;;;;;5.45;1.98;;;32.90;44.10;;;;;;4967786;29;20324;-72
2023/07/06 15:51:05;;;;;;;3.10;1.42;;;32.60;44.70;;;;;;4967408;29;20070;-72
2023/07/06 15:53:31;;;;;;;4.60;1.42;;;33.00;44.30;;;;;;4967272;29;20031;-72
2023/07/06 15:56:01;;;;;;;4.82;1.70;;;35.20;43.10;;;;;;4950373;29;20046;-72
2023/07/06 15:58:29;;;;;;;3.97;1.65;;;37.80;41.30;;;;;;4966960;29;20039;-73
2023/07/06 16:00:55;;;;;;;3.83;1.98;;;40.10;39.60;;;;;;4967332;28;20039;-73
2023/07/06 16:03:22;;;;;;;4.40;1.85;;;39.70;38.50;;;;;;4966866;28;20106;-73
2023/07/06 16:05:47;;;;;;;4.05;1.30;;;38.90;39.20;;;;;;4967537;29;20050;-73
2023/07/06 16:08:14;;;;;;;4.88;1.58;;;38.20;40.00;;;;;;4966883;29;20337;-72
2023/07/06 16:10:44;;;;;;;3.25;1.42;;;40.00;39.40;;;;;;4967082;29;20321;-73
2023/07/06 16:13:09;;;;;;;6.35;3.05;;;41.80;39.20;;;;;;4967185;29;20220;-73
2023/07/06 16:15:37;;;;;;;3.83;1.85;;;43.10;37.50;;;;;;4966372;29;20019;-71
2023/07/06 16:18:03;;;;;;;5.00;1.45;;;43.60;37.00;;;;;;4967134;29;20031;-71
2023/07/06 16:20:34;;;;;;;3.00;1.50;;;44.20;37.20;;;;;;4967013;29;20050;-71
2023/07/06 16:23:04;;;;;;;4.25;1.40;;;43.50;36.60;;;;;;4967374;29;20023;-71
2023/07/06 16:25:33;;;;;;;5.35;1.52;;;42.40;37.40;;;;;;4966742;29;20039;-73
2023/07/06 16:28:00;;;;;;;2.60;1.75;;;42.10;37.50;;;;;;4966830;29;20031;-71
2023/07/06 16:30:27;;;;;;;2.95;1.30;;;43.70;37.00;;;;;;4968090;28;20078;-72
2023/07/06 16:32:55;;;;;;;;;;;43.90;36.90;;;;;;4987001;28;20030;-71
2023/07/06 16:35:21;;;;;;;3.35;1.40;;;43.00;36.50;;;;;;4985713;28;19906;-72
2023/07/06 16:37:49;;;;;;;3.22;1.50;;;43.40;37.00;;;;;;4985388;28;20375;-72
2023/07/06 16:40:15;;;;;;;2.75;1.58;;;43.10;36.90;;;;;;4985818;28;20050;-74
2023/07/06 16:42:43;;;;;;;2.92;1.77;;;42.70;36.90;;;;;;4985764;28;20081;-72
2023/07/06 16:45:09;;;;;;;4.05;1.88;;;42.80;36.80;;;;;;4985887;28;20034;-72
2023/07/06 16:47:34;;;;;;;2.80;1.60;;;43.30;37.00;;;;;;4985366;28;20034;-72
2023/07/06 16:50:00;;;;;;;3.15;1.60;;;43.40;37.00;;;;;;4985425;28;20023;-71
2023/07/06 16:52:26;;;;;;;2.97;1.50;;;43.40;37.00;;;;;;4985589;28;20128;-72
2023/07/06 16:54:52;;;;;;;3.00;1.55;;;43.10;36.60;;;;;;4986066;28;20062;-73
2023/07/06 16:57:17;;;;;;;3.95;1.63;;;41.50;37.40;;;;;;4985661;28;20038;-72
2023/07/06 16:59:46;;;;;;;4.93;1.63;;;39.90;38.70;;;;;;4985527;28;20146;-73
2023/07/06 17:02:13;;;;;;;4.10;1.75;;;38.90;39.00;;;;;;4985565;28;20050;-72
2023/07/06 17:04:39;;;;;;;2.95;1.60;;;38.30;39.60;;;;;;4984050;28;20368;-73
2023/07/06 17:07:05;;;;;;;5.25;1.70;;;38.10;39.60;;;;;;4985377;28;20054;-76
2023/07/06 17:09:31;;;;;;;3.80;1.80;;;38.30;39.90;;;;;;4983853;28;20328;-74
2023/07/06 17:11:58;;;;;;;5.18;1.90;;;39.30;39.10;;;;;;4985557;28;20038;-73
2023/07/06 17:14:24;;;;;;;3.65;1.90;;;40.00;38.80;;;;;;4967792;28;20045;-72
2023/07/06 17:16:49;;;;;;;3.08;1.65;;;40.10;38.40;;;;;;4984574;28;20046;-73
2023/07/06 17:19:15;;;;;;;5.88;1.45;;;40.30;38.30;;;;;;4984754;28;20086;-73
2023/07/06 17:21:42;;;;;;;4.63;1.70;;;40.30;37.80;;;;;;4981046;28;20031;-72
2023/07/06 17:24:09;;;;;;;2.97;1.50;;;41.10;38.10;;;;;;4968225;28;20046;-73
2023/07/06 17:26:35;;;;;;;3.03;1.45;;;41.20;37.90;;;;;;4967556;28;20114;-73
2023/07/06 17:29:01;;;;;;;4.18;1.80;;;41.70;37.50;;;;;;4985292;28;20039;-73
2023/07/06 17:31:26;;;;;;;3.63;1.70;;;41.30;37.70;;;;;;4984476;28;20037;-72
2023/07/06 17:33:52;;;;;;;3.58;1.50;;;41.50;37.70;;;;;;4973149;28;20035;-72
2023/07/06 17:36:19;;;;;;;3.75;1.67;;;41.30;37.90;;;;;;4964836;29;20376;-73
2023/07/06 17:38:45;;;;;;;3.60;1.67;;;40.90;37.80;;;;;;4965821;29;20073;-72
2023/07/06 17:41:11;;;;;;;2.55;1.70;;;40.80;38.20;;;;;;4965877;29;20037;-72
2023/07/06 17:43:38;;;;;;;3.38;1.83;;;40.00;38.30;;;;;;4965169;29;20050;-73
2023/07/06 17:46:05;;;;;;;3.25;1.60;;;39.90;38.20;;;;;;4965884;29;20086;-73
2023/07/06 17:48:31;;;;;;;3.83;1.42;;;40.00;38.40;;;;;;4965101;29;20030;-73
2023/07/06 17:51:07;;;;;;;3.35;1.63;;;40.20;38.30;;;;;;4965655;29;20110;-73
2023/07/06 17:53:34;;;;;;;3.05;1.30;;;39.80;38.50;;;;;;4964792;29;20055;-73
2023/07/06 17:56:01;;;;;;;5.18;1.98;;;39.80;38.50;;;;;;4965287;29;20085;-73
2023/07/06 17:58:27;;;;;;;3.42;1.70;;;39.20;38.70;;;;;;4965237;29;20306;-73
2023/07/06 18:00:54;;;;;;;3.53;1.67;;;39.30;38.70;;;;;;4965356;28;20030;-73
2023/07/06 18:03:21;;;;;;;3.97;2.28;;;39.40;39.00;;;;;;4964742;28;20119;-74